createdAt,value
2023-06-28T00:00:16.788Z,10.48
2023-06-28T00:03:04.411Z,10.44
2023-06-28T00:05:32.123Z,10.41
2023-06-28T00:07:59.836Z,10.37
2023-06-28T00:10:27.445Z,10.34
2023-06-28T00:12:56.755Z,10.31
2023-06-28T00:15:24.336Z,10.29
2023-06-28T00:17:52.063Z,10.27
2023-06-28T00:20:19.786Z,10.27
2023-06-28T00:22:47.473Z,10.26
2023-06-28T00:25:15.062Z,10.28
2023-06-28T00:27:42.657Z,10.30
2023-06-28T00:30:10.554Z,10.33
2023-06-28T00:32:38.310Z,10.35
2023-06-28T00:35:07.349Z,10.34
2023-06-28T00:37:35.000Z,10.32
2023-06-28T00:40:02.683Z,10.28
2023-06-28T00:42:30.303Z,10.25
2023-06-28T00:44:57.899Z,10.20
2023-06-28T00:47:27.072Z,10.16
2023-06-28T00:49:56.018Z,10.12
2023-06-28T00:52:23.805Z,10.08
2023-06-28T00:54:51.627Z,10.03
2023-06-28T00:57:19.414Z,9.99
2023-06-28T00:59:49.146Z,9.96
2023-06-28T01:02:16.793Z,9.94
2023-06-28T01:04:44.824Z,9.91
2023-06-28T01:07:13.177Z,9.89
2023-06-28T01:09:41.589Z,9.86
2023-06-28T01:12:10.085Z,9.84
2023-06-28T01:14:37.726Z,9.79
2023-06-28T01:17:05.998Z,9.73
2023-06-28T01:19:33.649Z,9.69
2023-06-28T01:22:03.767Z,9.64
2023-06-28T01:24:31.510Z,9.59
2023-06-28T01:27:00.086Z,9.54
2023-06-28T01:29:28.043Z,9.52
2023-06-28T01:31:56.830Z,9.50
2023-06-28T01:34:24.804Z,9.48
2023-06-28T01:36:54.569Z,9.47
2023-06-28T01:39:23.473Z,9.44
2023-06-28T01:41:52.489Z,9.39
2023-06-28T01:44:20.667Z,9.34
2023-06-28T01:46:49.031Z,9.29
2023-06-28T01:49:16.690Z,9.25
2023-06-28T01:51:44.608Z,9.23
2023-06-28T01:54:12.304Z,9.21
2023-06-28T01:56:39.902Z,9.21
2023-06-28T01:59:07.667Z,9.19
2023-06-28T02:01:35.288Z,9.18
2023-06-28T02:04:03.021Z,9.15
2023-06-28T02:06:30.771Z,9.13
2023-06-28T02:08:58.374Z,9.13
2023-06-28T02:11:25.979Z,9.14
2023-06-28T02:13:53.709Z,9.14
2023-06-28T02:16:23.413Z,9.13
2023-06-28T02:18:51.052Z,9.13
2023-06-28T02:21:18.657Z,9.12
2023-06-28T02:23:46.224Z,9.09
2023-06-28T02:26:13.859Z,9.07
2023-06-28T02:28:41.496Z,9.05
2023-06-28T02:31:09.164Z,9.04
2023-06-28T02:33:36.791Z,9.01
2023-06-28T02:36:04.658Z,8.98
2023-06-28T02:38:32.260Z,8.95
2023-06-28T02:40:59.932Z,8.92
2023-06-28T02:43:27.599Z,8.90
2023-06-28T02:45:55.197Z,8.89
2023-06-28T02:48:22.854Z,8.90
2023-06-28T02:50:50.478Z,8.93
2023-06-28T02:53:18.118Z,8.95
2023-06-28T02:55:45.968Z,8.96
2023-06-28T02:58:13.618Z,8.98
2023-06-28T03:00:41.590Z,8.99
2023-06-28T03:03:09.552Z,9.01
2023-06-28T03:05:37.250Z,9.02
2023-06-28T03:08:04.996Z,9.07
2023-06-28T03:10:33.177Z,9.10
2023-06-28T03:13:00.791Z,9.14
2023-06-28T03:15:28.573Z,9.20
2023-06-28T03:17:58.764Z,9.27
2023-06-28T03:20:29.167Z,9.32
2023-06-28T03:22:56.938Z,9.38
2023-06-28T03:25:24.623Z,9.46
2023-06-28T03:27:52.273Z,9.53
2023-06-28T03:30:20.259Z,9.60
2023-06-28T03:32:47.959Z,9.66
2023-06-28T03:35:15.778Z,9.72
2023-06-28T03:37:54.392Z,9.80
2023-06-28T03:40:24.176Z,9.89
2023-06-28T03:42:51.883Z,9.99
2023-06-28T03:45:19.957Z,10.09
2023-06-28T03:47:48.431Z,10.21
2023-06-28T03:50:16.283Z,10.32
2023-06-28T03:52:43.917Z,10.44
2023-06-28T03:55:11.522Z,10.56
2023-06-28T03:57:39.140Z,10.68
2023-06-28T04:00:07.314Z,10.82
2023-06-28T04:02:35.120Z,10.95
2023-06-28T04:05:03.174Z,11.09
2023-06-28T04:07:30.870Z,11.23
2023-06-28T04:09:58.655Z,11.39
2023-06-28T04:12:26.298Z,11.54
2023-06-28T04:14:53.942Z,11.72
2023-06-28T04:17:21.611Z,11.90
2023-06-28T04:19:51.137Z,12.11
2023-06-28T04:22:18.929Z,12.35
2023-06-28T04:24:46.546Z,12.60
2023-06-28T04:27:16.629Z,12.83
2023-06-28T04:29:45.974Z,13.07
2023-06-28T04:32:27.515Z,13.31
2023-06-28T04:34:56.943Z,13.58
2023-06-28T04:37:27.035Z,13.81
2023-06-28T04:40:01.972Z,13.93
2023-06-28T04:42:30.476Z,14.03
2023-06-28T04:44:58.206Z,14.11
2023-06-28T04:47:26.237Z,14.13
2023-06-28T04:49:53.998Z,14.13
2023-06-28T04:52:24.200Z,14.21
2023-06-28T04:54:52.143Z,14.37
2023-06-28T04:57:20.125Z,14.60
2023-06-28T04:59:47.965Z,14.83
2023-06-28T05:02:16.309Z,15.03
2023-06-28T05:04:44.008Z,15.17
2023-06-28T05:07:11.669Z,15.18
2023-06-28T05:09:39.342Z,15.15
2023-06-28T05:12:07.505Z,15.17
2023-06-28T05:14:35.114Z,15.19
2023-06-28T05:17:02.872Z,15.22
2023-06-28T05:19:30.516Z,15.28
2023-06-28T05:21:58.157Z,15.30
2023-06-28T05:24:25.805Z,15.26
2023-06-28T05:26:53.474Z,15.24
2023-06-28T05:29:21.131Z,15.20
2023-06-28T05:31:48.961Z,15.26
2023-06-28T05:34:19.236Z,15.29
2023-06-28T05:36:47.016Z,15.21
2023-06-28T05:39:14.633Z,15.13
2023-06-28T05:41:42.246Z,15.14
2023-06-28T05:44:09.887Z,15.20
2023-06-28T05:46:37.490Z,15.18
2023-06-28T05:49:09.189Z,15.06
2023-06-28T05:51:37.059Z,14.95
2023-06-28T05:54:05.407Z,14.88
2023-06-28T05:56:33.037Z,14.88
2023-06-28T05:59:00.671Z,14.88
2023-06-28T06:01:29.211Z,14.96
2023-06-28T06:03:56.992Z,15.13
2023-06-28T06:06:24.665Z,15.33
2023-06-28T06:08:52.386Z,15.49
2023-06-28T06:11:20.146Z,15.57
2023-06-28T06:13:48.162Z,15.64
2023-06-28T06:16:15.837Z,15.68
2023-06-28T06:18:43.504Z,15.71
2023-06-28T06:21:11.213Z,15.70
2023-06-28T06:23:39.198Z,15.79
2023-06-28T06:26:07.178Z,15.86
2023-06-28T06:28:34.810Z,15.85
2023-06-28T06:31:02.580Z,15.86
2023-06-28T06:33:30.291Z,15.84
2023-06-28T06:35:58.179Z,15.78
2023-06-28T06:38:25.812Z,15.71
2023-06-28T06:40:53.582Z,15.76
2023-06-28T06:43:21.216Z,15.85
2023-06-28T06:45:49.169Z,15.92
2023-06-28T06:48:16.790Z,16.03
2023-06-28T06:50:45.673Z,16.19
2023-06-28T06:53:13.437Z,16.39
2023-06-28T06:55:41.061Z,16.60
2023-06-28T06:58:08.750Z,16.80
2023-06-28T07:00:36.370Z,16.91
2023-06-28T07:03:04.126Z,17.01
2023-06-28T07:05:32.206Z,17.07
2023-06-28T07:07:59.891Z,17.15
2023-06-28T07:10:27.578Z,17.12
2023-06-28T07:12:55.204Z,16.99
2023-06-28T07:15:22.960Z,16.91
2023-06-28T07:17:53.242Z,16.90
2023-06-28T07:20:21.999Z,16.89
2023-06-28T07:22:49.644Z,16.81
2023-06-28T07:25:17.334Z,16.74
2023-06-28T07:27:45.043Z,16.75
2023-06-28T07:30:13.153Z,16.77
2023-06-28T07:32:40.877Z,16.83
2023-06-28T07:35:08.786Z,16.81
2023-06-28T07:37:36.403Z,16.83
2023-06-28T07:40:04.933Z,16.87
2023-06-28T07:42:32.620Z,16.99
2023-06-28T07:45:00.262Z,17.26
2023-06-28T07:47:27.986Z,17.56
2023-06-28T07:49:55.652Z,17.72
2023-06-28T07:52:23.293Z,17.81
2023-06-28T07:54:50.950Z,17.90
2023-06-28T07:57:18.727Z,18.17
2023-06-28T07:59:46.498Z,18.36
2023-06-28T08:02:14.153Z,18.56
2023-06-28T08:04:41.802Z,18.67
2023-06-28T08:07:09.458Z,18.95
2023-06-28T08:09:37.091Z,19.16
2023-06-28T08:12:05.303Z,19.24
2023-06-28T08:14:32.944Z,19.19
2023-06-28T08:17:00.535Z,19.29
2023-06-28T08:19:28.294Z,19.44
2023-06-28T08:21:55.935Z,19.47
2023-06-28T08:24:23.527Z,19.64
2023-06-28T08:26:51.391Z,19.91
2023-06-28T08:29:19.141Z,19.92
2023-06-28T08:31:46.860Z,19.76
2023-06-28T08:34:14.520Z,19.63
2023-06-28T08:36:42.275Z,19.54
2023-06-28T08:39:09.886Z,19.65
2023-06-28T08:41:40.317Z,19.98
2023-06-28T08:44:13.210Z,20.34
2023-06-28T08:46:44.394Z,20.19
2023-06-28T08:49:12.557Z,19.95
2023-06-28T08:51:40.820Z,19.66
2023-06-28T08:54:13.266Z,19.51
2023-06-28T08:56:48.929Z,19.48
2023-06-28T08:59:27.493Z,19.37
2023-06-28T09:01:55.608Z,19.31
2023-06-28T09:04:24.945Z,19.36
2023-06-28T09:06:52.591Z,19.46
2023-06-28T09:09:21.287Z,19.53
2023-06-28T09:11:49.029Z,19.73
2023-06-28T09:14:16.734Z,20.04
2023-06-28T09:16:44.494Z,20.37
2023-06-28T09:19:12.167Z,20.80
2023-06-28T09:21:40.642Z,21.12
2023-06-28T09:24:12.544Z,21.04
2023-06-28T09:26:42.737Z,20.72
2023-06-28T09:29:13.668Z,20.32
2023-06-28T09:31:42.798Z,19.96
2023-06-28T09:34:11.036Z,19.56
2023-06-28T09:36:38.846Z,19.22
2023-06-28T09:39:06.929Z,18.88
2023-06-28T09:41:39.722Z,18.65
2023-06-28T09:44:08.038Z,18.55
2023-06-28T09:46:36.414Z,18.44
2023-06-28T09:49:04.060Z,18.36
2023-06-28T09:51:31.722Z,18.26
2023-06-28T09:53:59.428Z,18.20
2023-06-28T09:56:35.053Z,18.07
2023-06-28T09:59:12.807Z,17.81
2023-06-28T10:01:44.060Z,17.71
2023-06-28T10:04:12.628Z,17.94
2023-06-28T10:06:42.740Z,18.72
2023-06-28T10:09:13.271Z,19.30
2023-06-28T10:11:44.025Z,19.35
2023-06-28T10:14:13.796Z,19.05
2023-06-28T10:16:42.387Z,18.67
2023-06-28T10:19:10.896Z,18.54
2023-06-28T10:21:40.215Z,18.42
2023-06-28T10:24:08.033Z,18.32
2023-06-28T10:26:37.382Z,18.20
2023-06-28T10:29:05.364Z,18.21
2023-06-28T10:31:33.179Z,18.37
2023-06-28T10:34:00.992Z,18.76
2023-06-28T10:36:30.691Z,19.65
2023-06-28T10:39:01.389Z,21.65
2023-06-28T10:41:29.309Z,23.43
2023-06-28T10:44:07.493Z,25.03
2023-06-28T10:46:35.947Z,26.65
2023-06-28T10:49:04.416Z,27.95
2023-06-28T10:51:35.469Z,28.93
2023-06-28T10:54:13.900Z,29.98
2023-06-28T10:56:52.091Z,30.93
2023-06-28T10:59:20.178Z,30.32
2023-06-28T11:01:56.085Z,28.72
2023-06-28T11:04:25.642Z,26.59
2023-06-28T11:07:17.514Z,24.64
2023-06-28T11:10:15.285Z,22.53
2023-06-28T11:12:51.888Z,21.34
2023-06-28T11:15:28.777Z,20.70
2023-06-28T11:18:08.413Z,20.33
2023-06-28T11:20:58.261Z,20.07
2023-06-28T11:23:30.263Z,20.17
2023-06-28T11:26:01.250Z,20.28
2023-06-28T11:28:33.336Z,20.47
2023-06-28T11:31:18.561Z,20.68
2023-06-28T11:33:52.177Z,21.22
2023-06-28T11:36:24.411Z,22.43
2023-06-28T11:38:53.015Z,23.17
2023-06-28T11:41:21.351Z,25.56
2023-06-28T11:43:49.657Z,28.29
2023-06-28T11:46:22.432Z,29.82
2023-06-28T11:48:52.058Z,28.78
2023-06-28T11:51:23.000Z,27.32
2023-06-28T11:53:51.310Z,26.19
2023-06-28T11:56:19.301Z,26.86
2023-06-28T11:58:47.535Z,28.15
2023-06-28T12:01:23.071Z,29.34
2023-06-28T12:03:51.367Z,30.45
2023-06-28T12:06:21.577Z,29.79
2023-06-28T12:08:50.064Z,29.10
2023-06-28T12:11:18.676Z,28.21
2023-06-28T12:13:47.102Z,29.64
2023-06-28T12:16:17.839Z,29.99
2023-06-28T12:19:01.758Z,28.69
2023-06-28T12:21:32.338Z,27.08
2023-06-28T12:24:20.104Z,26.25
2023-06-28T12:26:53.553Z,25.34
2023-06-28T12:29:23.274Z,27.02
2023-06-28T12:31:55.161Z,29.26
2023-06-28T12:34:25.141Z,30.85
2023-06-28T12:37:01.658Z,31.47
2023-06-28T12:39:32.728Z,32.08
2023-06-28T12:42:19.758Z,31.45
2023-06-28T12:44:55.526Z,29.95
2023-06-28T12:47:30.978Z,28.52
2023-06-28T12:50:00.006Z,30.04
2023-06-28T12:52:29.544Z,31.51
2023-06-28T12:54:58.310Z,32.95
2023-06-28T12:57:26.508Z,32.76
2023-06-28T12:59:54.414Z,29.95
2023-06-28T13:02:22.249Z,27.56
2023-06-28T13:04:50.338Z,26.49
2023-06-28T13:07:18.366Z,25.70
2023-06-28T13:09:46.402Z,25.17
2023-06-28T13:12:14.422Z,25.30
2023-06-28T13:14:42.081Z,25.67
2023-06-28T13:17:09.788Z,26.20
2023-06-28T13:19:37.617Z,26.09
2023-06-28T13:22:05.436Z,25.66
2023-06-28T13:24:33.199Z,25.98
2023-06-28T13:27:00.967Z,27.73
2023-06-28T13:29:28.991Z,28.87
2023-06-28T13:31:56.969Z,27.83
2023-06-28T13:34:24.993Z,27.36
2023-06-28T13:36:52.872Z,27.24
2023-06-28T13:39:20.976Z,27.32
2023-06-28T13:41:48.872Z,27.10
2023-06-28T13:44:16.617Z,26.28
2023-06-28T13:46:44.324Z,25.56
2023-06-28T13:49:12.087Z,25.37
2023-06-28T13:51:39.714Z,25.24
2023-06-28T13:54:07.447Z,24.65
2023-06-28T13:56:35.246Z,24.18
2023-06-28T13:59:02.898Z,23.59
2023-06-28T14:01:30.565Z,23.07
2023-06-28T14:03:58.242Z,22.78
2023-06-28T14:06:25.921Z,22.54
2023-06-28T14:08:53.718Z,21.88
2023-06-28T14:11:21.441Z,20.95
2023-06-28T14:13:49.232Z,20.44
2023-06-28T14:16:16.862Z,20.08
2023-06-28T14:18:44.507Z,19.87
2023-06-28T14:21:12.146Z,19.52
2023-06-28T14:23:39.816Z,18.96
2023-06-28T14:26:07.419Z,18.54
2023-06-28T14:28:35.187Z,18.21
2023-06-28T14:31:02.840Z,17.99
2023-06-28T14:33:30.492Z,17.82
2023-06-28T14:35:58.105Z,17.82
2023-06-28T14:38:25.763Z,17.94
2023-06-28T14:40:53.608Z,17.85
2023-06-28T14:43:21.233Z,17.67
2023-06-28T14:45:48.950Z,17.57
2023-06-28T14:48:18.334Z,17.59
2023-06-28T14:50:46.549Z,17.73
2023-06-28T14:53:14.315Z,18.05
2023-06-28T14:55:42.338Z,18.39
2023-06-28T14:58:10.305Z,18.56
2023-06-28T15:00:39.177Z,18.60
2023-06-28T15:03:07.145Z,18.45
2023-06-28T15:05:34.963Z,18.27
2023-06-28T15:08:02.816Z,18.01
2023-06-28T15:10:30.521Z,17.77
2023-06-28T15:12:58.172Z,17.52
2023-06-28T15:15:25.871Z,17.33
2023-06-28T15:17:53.772Z,17.23
2023-06-28T15:20:30.730Z,17.05
2023-06-28T15:23:09.870Z,16.81
2023-06-28T15:25:37.514Z,16.69
2023-06-28T15:28:06.207Z,16.68
2023-06-28T15:30:33.932Z,16.62
2023-06-28T15:33:01.765Z,16.50
2023-06-28T15:35:29.610Z,16.38
2023-06-28T15:37:57.236Z,16.20
2023-06-28T15:40:24.891Z,15.92
2023-06-28T15:42:52.592Z,15.50
2023-06-28T15:45:20.340Z,15.14
2023-06-28T15:47:48.040Z,14.87
2023-06-28T15:50:15.729Z,14.68
2023-06-28T15:52:49.025Z,14.58
2023-06-28T15:55:24.204Z,14.56
2023-06-28T15:57:52.221Z,14.60
2023-06-28T16:00:23.302Z,14.70
2023-06-28T16:02:51.113Z,14.83
2023-06-28T16:05:22.601Z,14.94
2023-06-28T16:07:51.875Z,15.00
2023-06-28T16:10:21.067Z,15.02
2023-06-28T16:12:49.280Z,15.00
2023-06-28T16:15:17.076Z,14.92
2023-06-28T16:17:44.733Z,14.87
2023-06-28T16:20:12.520Z,14.81
2023-06-28T16:22:40.464Z,14.78
2023-06-28T16:25:08.620Z,14.78
2023-06-28T16:27:36.325Z,14.81
2023-06-28T16:30:04.432Z,14.82
2023-06-28T16:32:35.010Z,14.80
2023-06-28T16:35:02.665Z,14.72
2023-06-28T16:37:30.291Z,14.64
2023-06-28T16:39:58.101Z,14.55
2023-06-28T16:42:25.710Z,14.44
2023-06-28T16:44:53.353Z,14.35
2023-06-28T16:47:21.100Z,14.23
2023-06-28T16:49:48.732Z,14.12
2023-06-28T16:52:16.860Z,14.03
2023-06-28T16:54:44.518Z,13.95
2023-06-28T16:57:12.166Z,13.87
2023-06-28T16:59:39.768Z,13.79
2023-06-28T17:02:07.467Z,13.72
2023-06-28T17:04:35.176Z,13.68
2023-06-28T17:07:02.902Z,13.66
2023-06-28T17:09:30.530Z,13.63
2023-06-28T17:11:58.140Z,13.60
2023-06-28T17:14:28.507Z,13.62
2023-06-28T17:16:56.162Z,13.64
2023-06-28T17:19:23.777Z,13.64
2023-06-28T17:21:51.352Z,13.66
2023-06-28T17:24:19.099Z,13.67
2023-06-28T17:26:46.696Z,13.71
2023-06-28T17:29:14.324Z,13.75
2023-06-28T17:31:41.915Z,13.82
2023-06-28T17:34:09.562Z,13.90
2023-06-28T17:36:41.367Z,13.97
2023-06-28T17:39:11.602Z,13.98
2023-06-28T17:41:39.231Z,13.94
2023-06-28T17:44:06.819Z,13.88
2023-06-28T17:46:35.944Z,13.83
2023-06-28T17:49:03.803Z,13.82
2023-06-28T17:51:31.431Z,13.80
2023-06-28T17:53:59.019Z,13.77
2023-06-28T17:56:26.719Z,13.76
2023-06-28T17:58:54.410Z,13.73
2023-06-28T18:01:22.122Z,13.70
2023-06-28T18:03:49.787Z,13.66
2023-06-28T18:06:17.466Z,13.62
2023-06-28T18:08:45.042Z,13.60
2023-06-28T18:11:12.639Z,13.60
2023-06-28T18:13:40.363Z,13.58
2023-06-28T18:16:08.038Z,13.58
2023-06-28T18:18:36.100Z,13.56
2023-06-28T18:21:03.861Z,13.52
2023-06-28T18:23:34.486Z,13.45
2023-06-28T18:26:02.045Z,13.39
2023-06-28T18:28:29.668Z,13.32
2023-06-28T18:30:57.443Z,13.27
2023-06-28T18:33:25.076Z,13.23
2023-06-28T18:35:53.057Z,13.20
2023-06-28T18:38:20.796Z,13.17
2023-06-28T18:40:48.451Z,13.12
2023-06-28T18:43:16.028Z,13.07
2023-06-28T18:45:43.759Z,13.04
2023-06-28T18:48:11.663Z,13.01
2023-06-28T18:50:39.326Z,12.99
2023-06-28T18:53:06.947Z,12.98
2023-06-28T18:55:34.556Z,12.97
2023-06-28T18:58:02.217Z,12.97
2023-06-28T19:00:29.884Z,12.97
2023-06-28T19:02:57.626Z,12.98
2023-06-28T19:05:25.624Z,12.99
2023-06-28T19:07:53.287Z,13.01
2023-06-28T19:10:23.117Z,13.01
2023-06-28T19:12:50.877Z,13.00
2023-06-28T19:15:18.450Z,12.99
2023-06-28T19:17:46.092Z,13.00
2023-06-28T19:20:14.234Z,13.03
2023-06-28T19:22:41.892Z,13.05
2023-06-28T19:25:09.822Z,13.06
2023-06-28T19:27:37.545Z,13.07
2023-06-28T19:30:05.760Z,13.10
2023-06-28T19:32:33.567Z,13.13
2023-06-28T19:35:01.298Z,13.14
2023-06-28T19:37:29.039Z,13.16
2023-06-28T19:39:56.672Z,13.18
2023-06-28T19:42:24.299Z,13.18
2023-06-28T19:44:52.217Z,13.19
2023-06-28T19:47:19.982Z,13.18
2023-06-28T19:49:47.664Z,13.18
2023-06-28T19:52:15.267Z,13.19
2023-06-28T19:54:43.298Z,13.20
2023-06-28T19:57:11.151Z,13.21
2023-06-28T19:59:38.863Z,13.21
2023-06-28T20:02:06.938Z,13.21
2023-06-28T20:04:35.036Z,13.21
2023-06-28T20:07:03.914Z,13.22
2023-06-28T20:09:31.634Z,13.23
2023-06-28T20:11:59.254Z,13.26
2023-06-28T20:14:26.876Z,13.29
2023-06-28T20:16:54.549Z,13.31
2023-06-28T20:19:22.246Z,13.34
2023-06-28T20:21:52.902Z,13.35
2023-06-28T20:24:20.652Z,13.35
2023-06-28T20:26:48.270Z,13.36
2023-06-28T20:29:15.999Z,13.36
2023-06-28T20:31:43.713Z,13.36
2023-06-28T20:34:11.385Z,13.35
2023-06-28T20:36:39.051Z,13.34
2023-06-28T20:39:06.771Z,13.34
2023-06-28T20:41:34.380Z,13.33
2023-06-28T20:44:01.985Z,13.33
2023-06-28T20:46:29.689Z,13.32
2023-06-28T20:48:57.302Z,13.32
2023-06-28T20:51:24.915Z,13.32
2023-06-28T20:53:52.573Z,13.32
2023-06-28T20:56:20.357Z,13.32
2023-06-28T20:58:48.040Z,13.33
2023-06-28T21:01:15.714Z,13.34
2023-06-28T21:03:43.368Z,13.35
2023-06-28T21:06:11.087Z,13.36
2023-06-28T21:08:38.714Z,13.38
2023-06-28T21:11:06.346Z,13.38
2023-06-28T21:13:33.997Z,13.38
2023-06-28T21:16:01.663Z,13.39
2023-06-28T21:18:29.341Z,13.39
2023-06-28T21:20:56.911Z,13.40
2023-06-28T21:23:24.547Z,13.42
2023-06-28T21:25:52.181Z,13.45
2023-06-28T21:28:19.985Z,13.48
2023-06-28T21:30:47.624Z,13.49
2023-06-28T21:33:15.228Z,13.51
2023-06-28T21:35:43.132Z,13.52
2023-06-28T21:38:11.050Z,13.53
2023-06-28T21:40:38.681Z,13.53
2023-06-28T21:43:06.455Z,13.55
2023-06-28T21:45:34.095Z,13.57
2023-06-28T21:48:01.869Z,13.58
2023-06-28T21:50:29.655Z,13.58
2023-06-28T21:52:57.304Z,13.61
2023-06-28T21:55:25.061Z,13.62
2023-06-28T21:57:52.723Z,13.63
2023-06-28T22:00:25.577Z,13.64
2023-06-28T22:02:53.605Z,13.65
2023-06-28T22:05:23.371Z,13.65
2023-06-28T22:07:51.181Z,13.68
2023-06-28T22:10:19.453Z,13.69
2023-06-28T22:12:47.132Z,13.71
2023-06-28T22:15:15.435Z,13.73
2023-06-28T22:17:43.172Z,13.74
2023-06-28T22:20:11.162Z,13.75
2023-06-28T22:22:38.973Z,13.76
2023-06-28T22:25:06.801Z,13.78
2023-06-28T22:27:34.431Z,13.80
2023-06-28T22:30:02.412Z,13.81
2023-06-28T22:32:30.251Z,13.80
2023-06-28T22:34:57.865Z,13.81
2023-06-28T22:37:25.503Z,13.83
2023-06-28T22:39:53.142Z,13.86
2023-06-28T22:42:21.036Z,13.87
2023-06-28T22:44:48.625Z,13.88
2023-06-28T22:47:16.252Z,13.89
2023-06-28T22:49:45.098Z,13.90
2023-06-28T22:52:12.799Z,13.91
2023-06-28T22:54:40.385Z,13.91
2023-06-28T22:57:07.995Z,13.91
2023-06-28T22:59:35.608Z,13.93
2023-06-28T23:02:03.462Z,13.94
2023-06-28T23:04:31.088Z,13.94
2023-06-28T23:06:58.743Z,13.96
2023-06-28T23:09:26.363Z,13.96
2023-06-28T23:11:54.007Z,13.98
2023-06-28T23:14:21.690Z,13.99
2023-06-28T23:16:49.326Z,13.99
2023-06-28T23:19:16.902Z,13.99
2023-06-28T23:21:44.936Z,13.99
2023-06-28T23:24:12.633Z,14.01
2023-06-28T23:26:40.274Z,14.02
2023-06-28T23:29:07.892Z,14.01
2023-06-28T23:31:35.493Z,14.03
2023-06-28T23:34:03.161Z,14.03
2023-06-28T23:36:31.113Z,14.03
2023-06-28T23:38:58.705Z,14.04
2023-06-28T23:41:26.337Z,14.04
2023-06-28T23:43:54.364Z,14.04
2023-06-28T23:46:21.971Z,14.06
2023-06-28T23:48:49.584Z,14.08
2023-06-28T23:51:17.187Z,14.09
2023-06-28T23:53:44.806Z,14.09
2023-06-28T23:56:12.593Z,14.08
2023-06-28T23:58:41.058Z,14.09
